Time;durP1;ratioP1;P1;durP2;ratioP2;P2;SDS_P1;SDS_P2;PMS_P1;PMS_P2;Temp;Humidity;BMP_temperature;BMP_pressure;BME280_temperature;BME280_humidity;BME280_pressure;Samples;Min_cycle;Max_cycle;Signal;HPM_P1;HPM_P2
2022/09/30 00:01:04;;;;;;;9.97;9.17;;;8.00;99.90;;;;;;6212804;23;20597;-89
2022/09/30 00:03:31;;;;;;;10.13;9.13;;;7.70;99.90;;;;;;6220740;23;20578;-89
2022/09/30 00:05:58;;;;;;;8.70;8.07;;;7.50;99.90;;;;;;6218781;23;20627;-89
2022/09/30 00:08:27;;;;;;;9.27;8.47;;;7.70;99.90;;;;;;6216874;23;20610;-89
2022/09/30 00:11:02;;;;;;;9.70;8.87;;;7.20;99.90;;;;;;6218904;23;20594;-89
2022/09/30 00:13:30;;;;;;;9.57;8.77;;;7.40;99.90;;;;;;6221770;23;20620;-90
2022/09/30 00:15:59;;;;;;;9.13;8.33;;;7.30;99.90;;;;;;6217182;23;20678;-91
2022/09/30 00:18:26;;;;;;;9.90;9.00;;;7.30;99.90;;;;;;6232729;23;20669;-90
2022/09/30 00:20:53;;;;;;;10.03;9.00;;;7.60;99.90;;;;;;6238565;23;20579;-89
2022/09/30 00:23:19;;;;;;;12.27;9.13;;;7.70;99.90;;;;;;6221500;23;20617;-88
2022/09/30 00:25:46;;;;;;;10.50;9.50;;;7.80;99.90;;;;;;6233412;23;20590;-89
2022/09/30 00:28:13;;;;;;;10.93;10.03;;;8.10;99.90;;;;;;6235594;23;20606;-90
2022/09/30 00:30:40;;;;;;;10.33;9.30;;;7.80;99.90;;;;;;6234851;23;20618;-89
2022/09/30 00:33:08;;;;;;;12.00;9.37;;;8.00;99.90;;;;;;6213826;23;20563;-89
2022/09/30 00:35:36;;;;;;;9.97;9.10;;;8.10;99.90;;;;;;6184719;23;20688;-89
2022/09/30 00:38:03;;;;;;;10.17;9.27;;;8.00;99.90;;;;;;6211958;23;20738;-90
2022/09/30 00:40:31;;;;;;;9.60;8.80;;;7.80;99.90;;;;;;6211113;23;20590;-90
2022/09/30 00:42:59;;;;;;;10.03;9.00;;;8.40;99.90;;;;;;6211409;23;20600;-90
2022/09/30 00:45:27;;;;;;;9.57;8.80;;;8.00;99.90;;;;;;6185110;23;20583;-89
2022/09/30 00:47:56;;;;;;;9.53;8.80;;;7.90;99.90;;;;;;6211056;23;20614;-90
2022/09/30 00:50:33;;;;;;;9.60;8.80;;;8.00;99.90;;;;;;6211436;23;20587;-89
2022/09/30 00:53:08;;;;;;;10.77;9.67;;;8.10;99.90;;;;;;6211821;23;20585;-90
2022/09/30 00:55:44;;;;;;;8.93;8.13;;;8.10;99.90;;;;;;6210899;23;20601;-90
2022/09/30 00:58:15;;;;;;;10.50;9.70;;;8.20;99.90;;;;;;6211017;23;21130;-90
2022/09/30 01:00:42;;;;;;;10.27;9.20;;;7.90;99.90;;;;;;6186054;23;20557;-90
2022/09/30 01:03:09;;;;;;;8.87;8.20;;;8.00;99.90;;;;;;6212013;23;20597;-90
2022/09/30 01:05:37;;;;;;;8.90;8.20;;;7.90;99.90;;;;;;6210584;23;20595;-89
2022/09/30 01:08:07;;;;;;;9.70;8.93;;;8.10;99.90;;;;;;6210513;23;20621;-90
2022/09/30 01:10:33;;;;;;;9.70;9.00;;;8.10;99.90;;;;;;6210716;23;20894;-90
2022/09/30 01:13:01;;;;;;;9.30;8.53;;;8.60;99.90;;;;;;6208746;23;21087;-90
2022/09/30 01:15:44;;;;;;;9.40;8.40;;;8.10;99.90;;;;;;6213818;23;20607;-91
2022/09/30 01:18:19;;;;;;;8.70;7.80;;;8.30;99.90;;;;;;6184962;23;20606;-90
2022/09/30 01:21:18;;;;;;;9.70;7.90;;;7.90;99.90;;;;;;6211132;23;20558;-91
2022/09/30 01:24:00;;;;;;;7.90;7.20;;;8.50;99.90;;;;;;6209930;23;20605;-90
2022/09/30 01:26:49;;;;;;;9.70;8.87;;;8.00;99.90;;;;;;6210330;23;20551;-90
2022/09/30 01:29:42;;;;;;;8.50;7.80;;;8.40;99.90;;;;;;6210875;23;20581;-90
2022/09/30 01:32:22;;;;;;;10.00;7.67;;;7.90;99.90;;;;;;6184726;23;20586;-90
2022/09/30 01:34:58;;;;;;;8.50;7.80;;;8.30;99.90;;;;;;6210748;23;20590;-89
2022/09/30 01:37:35;;;;;;;8.20;7.50;;;8.00;99.90;;;;;;6211056;23;21534;-90
2022/09/30 01:40:07;;;;;;;8.90;8.10;;;8.00;99.90;;;;;;6210825;23;20577;-90
2022/09/30 01:42:41;;;;;;;8.87;8.03;;;8.40;99.90;;;;;;6211108;23;20583;-90
2022/09/30 01:45:13;;;;;;;10.47;8.20;;;7.90;99.90;;;;;;6209663;23;20570;-90
2022/09/30 01:47:46;;;;;;;8.83;8.03;;;8.00;99.90;;;;;;6216418;23;20614;-89
2022/09/30 01:50:19;;;;;;;11.20;8.80;;;8.30;99.90;;;;;;6211063;23;20534;-89
2022/09/30 01:52:52;;;;;;;9.20;7.87;;;8.00;99.90;;;;;;6211165;23;20523;-90
2022/09/30 01:55:22;;;;;;;7.90;7.40;;;8.30;99.90;;;;;;6210796;23;20567;-90
2022/09/30 01:57:56;;;;;;;10.50;7.37;;;8.20;99.90;;;;;;6210634;23;20923;-92
2022/09/30 02:00:23;;;;;;;9.40;7.43;;;8.10;99.90;;;;;;6186582;23;20954;-90
2022/09/30 02:02:55;;;;;;;9.10;8.17;;;8.10;99.90;;;;;;6214186;23;20624;-92
2022/09/30 02:05:28;;;;;;;8.43;7.63;;;8.00;99.90;;;;;;6214512;23;20525;-89
2022/09/30 02:08:00;;;;;;;8.10;7.50;;;8.00;99.90;;;;;;6212979;23;20591;-90
2022/09/30 02:10:31;;;;;;;9.13;8.23;;;8.30;99.90;;;;;;6213109;23;20561;-90
2022/09/30 02:13:03;;;;;;;8.57;7.80;;;7.90;99.90;;;;;;6209859;23;20516;-89
2022/09/30 02:15:38;;;;;;;9.37;8.47;;;8.30;99.90;;;;;;6211582;23;20614;-88
2022/09/30 02:18:13;;;;;;;9.13;7.87;;;8.40;99.90;;;;;;6211878;23;20606;-88
2022/09/30 02:20:43;;;;;;;10.87;8.53;;;8.10;99.90;;;;;;6211822;23;20550;-89
2022/09/30 02:23:15;;;;;;;9.57;8.87;;;8.20;99.90;;;;;;6212291;23;21055;-89
2022/09/30 02:25:46;;;;;;;8.23;7.43;;;7.90;99.90;;;;;;6211366;23;20919;-92
2022/09/30 02:28:22;;;;;;;8.73;8.03;;;7.80;99.90;;;;;;6210886;23;21236;-89
2022/09/30 02:30:51;;;;;;;9.40;8.60;;;8.30;99.90;;;;;;6211577;23;20563;-90
2022/09/30 02:33:25;;;;;;;9.87;9.07;;;8.00;99.90;;;;;;6211517;23;20583;-88
2022/09/30 02:35:59;;;;;;;9.40;8.50;;;7.60;99.90;;;;;;6210879;23;21166;-89
2022/09/30 02:38:30;;;;;;;9.93;9.03;;;8.00;99.90;;;;;;6212056;23;20676;-89
2022/09/30 02:41:05;;;;;;;9.33;8.53;;;7.60;99.90;;;;;;6207132;23;20536;-91
2022/09/30 02:43:32;;;;;;;10.13;9.13;;;8.00;99.90;;;;;;6210761;23;20897;-90
2022/09/30 02:46:08;;;;;;;9.60;8.60;;;7.70;99.90;;;;;;6209686;23;20593;-91
2022/09/30 02:48:44;;;;;;;9.73;8.70;;;8.30;99.90;;;;;;6209040;23;20651;-91
2022/09/30 02:51:16;;;;;;;9.27;8.47;;;8.20;99.90;;;;;;6217272;23;20543;-90
2022/09/30 02:54:00;;;;;;;10.17;9.10;;;8.20;99.90;;;;;;6217354;23;20519;-91
2022/09/30 02:56:37;;;;;;;9.10;8.23;;;8.20;99.90;;;;;;6214865;23;20593;-89
2022/09/30 02:59:04;;;;;;;10.67;9.00;;;8.00;99.90;;;;;;6214166;23;20555;-89
2022/09/30 03:01:32;;;;;;;11.43;8.73;;;8.00;99.90;;;;;;6211882;23;20594;-90
2022/09/30 03:04:04;;;;;;;8.87;8.17;;;7.70;99.90;;;;;;6212180;23;21367;-88
2022/09/30 03:06:32;;;;;;;10.67;9.57;;;8.10;99.90;;;;;;6210840;23;20661;-89
2022/09/30 03:08:59;;;;;;;10.80;9.47;;;8.10;99.90;;;;;;6212308;23;20945;-90
2022/09/30 03:11:28;;;;;;;12.20;10.90;;;8.00;99.90;;;;;;6211894;23;20558;-90
2022/09/30 03:14:35;;;;;;;10.70;9.77;;;8.00;99.90;;;;;;6212481;23;21346;-90
2022/09/30 03:17:23;;;;;;;10.63;9.80;;;8.10;99.90;;;;;;6213737;23;20626;-89
2022/09/30 03:20:07;;;;;;;12.33;11.30;;;8.10;99.90;;;;;;6212419;23;20594;-90
2022/09/30 03:22:47;;;;;;;12.77;11.60;;;8.20;99.90;;;;;;6213818;23;20551;-90
2022/09/30 03:25:23;;;;;;;13.37;12.27;;;7.70;99.90;;;;;;6212142;23;20554;-88
2022/09/30 03:28:03;;;;;;;11.90;10.80;;;7.90;99.90;;;;;;6213026;23;21111;-90
2022/09/30 03:30:32;;;;;;;12.47;11.47;;;8.10;99.90;;;;;;6212875;23;20558;-90
2022/09/30 03:33:09;;;;;;;13.47;12.23;;;8.00;99.90;;;;;;6213362;23;20582;-90
2022/09/30 03:35:46;;;;;;;12.47;11.57;;;7.70;99.90;;;;;;6212019;23;20591;-90
2022/09/30 03:38:23;;;;;;;14.07;12.77;;;8.00;99.90;;;;;;6212962;23;20618;-90
2022/09/30 03:40:58;;;;;;;12.63;11.73;;;7.80;99.90;;;;;;6212217;23;20900;-90
2022/09/30 03:43:31;;;;;;;12.47;11.27;;;8.20;99.90;;;;;;6213726;23;20936;-91
2022/09/30 03:46:04;;;;;;;12.80;11.70;;;7.80;99.90;;;;;;6213117;23;20543;-90
2022/09/30 03:48:33;;;;;;;12.60;11.33;;;8.10;99.90;;;;;;6219204;23;20599;-89
2022/09/30 03:51:01;;;;;;;12.73;11.60;;;7.90;99.90;;;;;;6219594;23;20581;-90
2022/09/30 03:53:28;;;;;;;12.37;11.27;;;7.80;99.90;;;;;;6219638;23;20585;-89
2022/09/30 03:55:56;;;;;;;12.63;11.63;;;8.00;99.90;;;;;;6217892;23;20591;-90
2022/09/30 03:58:24;;;;;;;11.80;10.90;;;7.80;99.90;;;;;;6212424;23;20599;-89
2022/09/30 04:00:53;;;;;;;14.03;12.57;;;7.90;99.90;;;;;;6216674;23;20597;-90
2022/09/30 04:03:21;;;;;;;12.50;11.47;;;8.40;99.90;;;;;;6231240;23;20603;-90
2022/09/30 04:05:49;;;;;;;12.37;11.20;;;7.80;99.90;;;;;;6238869;23;20602;-91
2022/09/30 04:08:18;;;;;;;13.67;12.37;;;8.20;99.90;;;;;;6240905;23;20630;-90
2022/09/30 04:10:45;;;;;;;12.47;11.37;;;8.10;99.90;;;;;;6239464;23;20571;-90
2022/09/30 04:13:12;;;;;;;13.93;12.57;;;7.70;99.90;;;;;;6238597;23;20536;-91
2022/09/30 04:15:40;;;;;;;12.57;11.67;;;7.90;99.90;;;;;;6224165;23;21196;-90
2022/09/30 04:18:08;;;;;;;13.67;12.37;;;8.10;99.90;;;;;;6214029;23;20565;-90
2022/09/30 04:20:34;;;;;;;13.33;12.30;;;7.70;99.90;;;;;;6213591;23;20593;-90
2022/09/30 04:23:02;;;;;;;14.03;12.83;;;8.20;99.90;;;;;;6212612;23;20551;-90
2022/09/30 04:25:30;;;;;;;14.37;13.07;;;8.10;99.90;;;;;;6217967;23;20926;-91
2022/09/30 04:27:57;;;;;;;14.23;13.03;;;7.60;99.90;;;;;;6216067;23;20563;-91
2022/09/30 04:30:24;;;;;;;13.43;12.53;;;7.70;99.90;;;;;;6213263;23;20583;-91
2022/09/30 04:32:52;;;;;;;13.77;12.63;;;7.70;99.90;;;;;;6213837;23;20594;-92
2022/09/30 04:35:19;;;;;;;13.90;12.60;;;7.90;99.90;;;;;;6213166;23;21150;-91
2022/09/30 04:37:46;;;;;;;13.80;12.60;;;7.60;99.90;;;;;;6217075;23;20694;-92
2022/09/30 04:40:15;;;;;;;15.00;13.77;;;7.40;99.90;;;;;;6216625;23;20559;-91
2022/09/30 04:42:46;;;;;;;14.13;12.87;;;7.90;99.90;;;;;;6215029;23;20594;-91
2022/09/30 04:47:49;;;;;;;15.23;14.03;;;7.50;99.90;;;;;;6174829;22;20968;-91
2022/09/30 04:50:16;;;;;;;15.43;14.23;;;7.10;99.90;;;;;;6179702;23;21115;-90
2022/09/30 04:52:43;;;;;;;15.53;13.93;;;7.80;99.90;;;;;;6181117;23;20831;-90
2022/09/30 04:55:13;;;;;;;15.80;14.57;;;7.20;99.90;;;;;;6180445;23;20941;-90
2022/09/30 04:57:50;;;;;;;16.00;14.70;;;7.30;99.90;;;;;;6181197;23;20623;-89
2022/09/30 05:00:24;;;;;;;16.47;14.67;;;7.60;99.90;;;;;;6182314;23;20548;-90
2022/09/30 05:02:53;;;;;;;15.80;14.50;;;7.80;99.90;;;;;;6183347;23;20567;-90
2022/09/30 05:05:22;;;;;;;16.50;15.20;;;7.60;99.90;;;;;;6182315;23;20528;-91
2022/09/30 05:07:48;;;;;;;16.40;15.00;;;7.50;99.90;;;;;;6196526;23;20592;-89
2022/09/30 05:10:17;;;;;;;17.43;15.87;;;7.50;99.90;;;;;;6188922;23;20602;-90
2022/09/30 05:12:45;;;;;;;19.13;17.40;;;7.70;99.90;;;;;;6181712;23;20556;-88
2022/09/30 05:15:12;;;;;;;20.03;18.30;;;8.10;99.90;;;;;;6182412;23;20555;-90
2022/09/30 05:17:38;;;;;;;17.17;15.63;;;8.00;99.90;;;;;;6179711;23;20604;-90
2022/09/30 05:20:09;;;;;;;14.87;13.53;;;7.50;99.90;;;;;;6180652;23;20586;-91
2022/09/30 05:22:42;;;;;;;13.60;12.50;;;8.00;99.90;;;;;;6180406;23;20556;-91
2022/09/30 05:25:09;;;;;;;13.57;12.50;;;7.50;99.90;;;;;;6181192;23;20603;-92
2022/09/30 05:27:36;;;;;;;13.00;12.00;;;8.00;99.90;;;;;;6180600;23;21175;-91
2022/09/30 05:30:06;;;;;;;13.30;12.13;;;8.10;99.90;;;;;;6180042;23;20600;-91
2022/09/30 05:32:33;;;;;;;14.90;13.60;;;7.90;99.90;;;;;;6180290;23;20841;-91
2022/09/30 05:35:02;;;;;;;15.03;13.73;;;7.60;99.90;;;;;;6181949;23;20587;-91
2022/09/30 05:37:29;;;;;;;15.47;14.13;;;7.70;99.90;;;;;;6182199;23;20638;-92
2022/09/30 05:39:56;;;;;;;22.50;20.73;;;7.60;99.90;;;;;;6182007;23;20554;-91
2022/09/30 05:42:22;;;;;;;18.40;16.80;;;8.00;99.90;;;;;;6181941;23;20595;-91
2022/09/30 05:44:49;;;;;;;33.40;22.90;;;8.00;99.90;;;;;;6182014;23;20587;-91
2022/09/30 05:47:18;;;;;;;175.63;28.80;;;7.60;99.90;;;;;;6181092;23;20617;-90
2022/09/30 05:49:45;;;;;;;31.83;21.10;;;7.80;99.90;;;;;;6182876;23;21446;-92
2022/09/30 05:52:13;;;;;;;22.97;20.60;;;8.00;99.90;;;;;;6182357;23;21172;-91
2022/09/30 05:54:41;;;;;;;39.70;21.07;;;8.00;99.90;;;;;;6182078;23;20941;-90
2022/09/30 05:57:08;;;;;;;89.90;25.77;;;8.10;99.90;;;;;;6206772;23;21237;-91
2022/09/30 05:59:36;;;;;;;41.70;21.47;;;7.80;99.90;;;;;;6184293;23;20589;-91
2022/09/30 06:02:03;;;;;;;100.97;23.13;;;7.90;99.90;;;;;;6186666;23;20580;-90
2022/09/30 06:04:32;;;;;;;54.90;22.20;;;7.90;99.90;;;;;;6185831;23;20575;-91
2022/09/30 06:06:59;;;;;;;40.83;21.87;;;7.80;99.90;;;;;;6184538;23;20662;-91
2022/09/30 06:09:27;;;;;;;31.80;20.43;;;7.80;99.90;;;;;;6182019;23;20983;-92
2022/09/30 06:11:56;;;;;;;30.30;20.17;;;7.90;99.90;;;;;;6182382;23;20635;-91
2022/09/30 06:14:23;;;;;;;42.17;20.47;;;7.90;99.90;;;;;;6181452;23;20576;-92
2022/09/30 06:16:50;;;;;;;32.17;20.53;;;8.30;99.90;;;;;;6183518;23;20619;-90
2022/09/30 06:19:18;;;;;;;77.93;20.77;;;8.40;99.90;;;;;;6184035;23;20646;-91
2022/09/30 06:21:52;;;;;;;21.87;18.00;;;8.50;99.90;;;;;;6183287;23;20590;-91
2022/09/30 06:24:19;;;;;;;46.20;18.77;;;8.10;99.90;;;;;;6182763;23;20589;-92
2022/09/30 06:26:47;;;;;;;93.80;23.63;;;8.10;99.90;;;;;;6183159;23;21210;-92
2022/09/30 06:29:14;;;;;;;109.33;23.27;;;8.60;99.90;;;;;;6182611;23;20516;-91
2022/09/30 06:31:41;;;;;;;231.10;32.17;;;8.20;99.90;;;;;;6183275;23;20571;-92
2022/09/30 06:34:09;;;;;;;154.17;31.70;;;8.10;99.90;;;;;;6183279;23;20563;-91
2022/09/30 06:36:36;;;;;;;58.07;23.30;;;7.60;99.90;;;;;;6183541;23;20636;-90
2022/09/30 06:39:05;;;;;;;234.03;36.50;;;8.30;99.90;;;;;;6184808;23;20622;-91
2022/09/30 06:41:31;;;;;;;217.17;32.23;;;8.40;99.90;;;;;;6185828;23;20563;-91
2022/09/30 06:43:58;;;;;;;67.60;23.17;;;8.20;99.90;;;;;;6184579;23;20595;-91
2022/09/30 06:46:25;;;;;;;194.17;29.33;;;7.80;99.90;;;;;;6190717;22;20608;-91
2022/09/30 06:48:55;;;;;;;197.67;30.47;;;8.30;99.90;;;;;;6212995;23;20609;-90
2022/09/30 06:51:25;;;;;;;135.60;25.60;;;8.20;99.90;;;;;;6212718;23;20727;-90
2022/09/30 06:53:53;;;;;;;116.60;27.40;;;8.10;99.90;;;;;;6212269;23;21109;-90
2022/09/30 06:56:22;;;;;;;106.10;27.80;;;8.10;99.90;;;;;;6211794;23;20999;-91
2022/09/30 06:58:49;;;;;;;57.27;25.73;;;8.30;99.90;;;;;;6212580;23;20633;-91
2022/09/30 07:01:23;;;;;;;28.33;25.73;;;8.20;99.90;;;;;;6212366;23;21257;-90
2022/09/30 07:03:56;;;;;;;25.20;22.70;;;8.10;99.90;;;;;;6213597;23;20589;-92
2022/09/30 07:06:25;;;;;;;30.00;22.17;;;7.70;99.90;;;;;;6211831;23;20646;-90
2022/09/30 07:08:52;;;;;;;28.23;25.40;;;7.60;99.90;;;;;;6224898;23;20693;-96
2022/09/30 07:11:27;;;;;;;27.23;24.63;;;8.00;99.90;;;;;;6195978;23;20621;-94
2022/09/30 07:14:01;;;;;;;27.07;22.47;;;8.10;99.90;;;;;;6217928;23;20570;-95
2022/09/30 07:16:27;;;;;;;146.23;27.77;;;8.10;99.90;;;;;;6218631;23;20633;-94
2022/09/30 07:18:54;;;;;;;22.43;20.23;;;8.10;99.90;;;;;;6191694;23;20546;-95
2022/09/30 07:21:22;;;;;;;21.70;19.90;;;8.40;99.90;;;;;;6227349;23;20543;-95
2022/09/30 07:24:11;;;;;;;133.20;24.67;;;8.60;99.90;;;;;;6239656;23;20654;-95
2022/09/30 07:26:44;;;;;;;52.37;21.83;;;8.70;99.90;;;;;;6238841;23;20606;-94
2022/09/30 07:29:21;;;;;;;36.53;20.10;;;8.70;99.90;;;;;;6227305;23;20884;-94
2022/09/30 07:31:48;;;;;;;22.10;18.70;;;8.40;99.90;;;;;;6219055;23;20669;-94
2022/09/30 07:34:15;;;;;;;28.03;20.33;;;8.40;99.90;;;;;;6222171;23;20606;-94
2022/09/30 07:36:42;;;;;;;22.83;20.10;;;8.20;99.90;;;;;;6220298;23;20619;-95
2022/09/30 07:39:10;;;;;;;22.00;19.73;;;8.50;99.90;;;;;;6216569;23;20685;-94
2022/09/30 07:41:43;;;;;;;43.93;18.17;;;8.30;99.90;;;;;;6216816;23;21094;-94
2022/09/30 07:44:13;;;;;;;20.80;19.10;;;8.30;99.90;;;;;;6216798;23;20979;-94
2022/09/30 07:46:41;;;;;;;19.90;17.90;;;8.60;99.90;;;;;;6208954;23;20661;-94
2022/09/30 07:49:13;;;;;;;21.63;19.40;;;8.40;99.90;;;;;;6189636;23;20679;-95
2022/09/30 07:51:47;;;;;;;20.53;18.33;;;8.20;99.90;;;;;;6195845;23;20583;-95
2022/09/30 07:54:34;;;;;;;18.07;16.50;;;8.80;99.90;;;;;;6201721;23;20582;-94
2022/09/30 08:08:26;;;;;;;16.97;15.47;;;9.80;99.90;;;;;;6198597;23;20572;-95
2022/09/30 08:10:53;;;;;;;15.63;14.43;;;10.10;99.90;;;;;;6206660;23;20579;-96
2022/09/30 08:13:33;;;;;;;15.70;14.33;;;10.10;99.90;;;;;;6210886;23;20584;-95
2022/09/30 08:16:19;;;;;;;16.53;15.23;;;10.20;99.90;;;;;;6211052;23;20595;-96
2022/09/30 08:18:48;;;;;;;16.50;15.20;;;10.40;99.90;;;;;;6210074;23;20626;-96
2022/09/30 08:21:18;;;;;;;15.67;14.43;;;10.30;99.90;;;;;;6209079;23;20568;-96
2022/09/30 08:24:05;;;;;;;16.50;15.00;;;10.50;99.90;;;;;;6202337;23;20583;-96
2022/09/30 08:26:35;;;;;;;16.17;14.77;;;10.50;99.90;;;;;;6197564;23;20722;-96
2022/09/30 08:29:06;;;;;;;14.03;12.83;;;10.60;99.90;;;;;;6196350;23;20588;-95
2022/09/30 08:31:33;;;;;;;15.17;13.77;;;10.70;99.90;;;;;;6199361;23;20586;-95
2022/09/30 08:34:02;;;;;;;14.10;13.03;;;10.60;99.90;;;;;;6195627;23;20637;-95
2022/09/30 08:36:30;;;;;;;15.37;13.93;;;10.60;99.90;;;;;;6193977;23;20627;-96
2022/09/30 08:39:09;;;;;;;14.70;13.47;;;10.60;99.90;;;;;;6195028;23;20677;-96
2022/09/30 08:42:06;;;;;;;14.80;13.60;;;10.80;99.90;;;;;;6195264;23;20610;-96
2022/09/30 08:44:42;;;;;;;14.80;13.37;;;10.90;99.90;;;;;;6194209;23;20582;-96
2022/09/30 08:47:27;;;;;;;13.57;12.47;;;11.10;99.90;;;;;;6189238;23;20697;-96
2022/09/30 08:50:03;;;;;;;13.50;12.37;;;11.00;99.90;;;;;;6192798;23;20607;-96
2022/09/30 08:52:42;;;;;;;14.20;13.10;;;11.10;99.90;;;;;;6193283;23;20575;-96
2022/09/30 08:55:16;;;;;;;14.50;13.20;;;11.20;99.90;;;;;;6194023;23;20626;-95
2022/09/30 08:57:45;;;;;;;14.37;13.23;;;11.50;99.90;;;;;;6194247;23;20609;-96
2022/09/30 09:00:25;;;;;;;14.20;13.00;;;11.50;99.90;;;;;;6195024;23;20686;-96
2022/09/30 09:02:57;;;;;;;14.90;13.60;;;11.60;99.90;;;;;;6192520;23;20659;-96
2022/09/30 09:05:33;;;;;;;14.77;13.27;;;11.70;99.90;;;;;;6188719;23;20881;-96
2022/09/30 09:08:07;;;;;;;13.13;12.03;;;12.00;99.90;;;;;;6187863;23;20563;-96
2022/09/30 09:10:40;;;;;;;13.83;12.53;;;12.00;99.90;;;;;;6189678;23;20594;-96
2022/09/30 09:13:19;;;;;;;14.87;13.33;;;12.20;99.90;;;;;;6191405;23;20598;-96
2022/09/30 09:15:59;;;;;;;14.00;12.80;;;12.50;99.90;;;;;;6191192;23;20607;-96
2022/09/30 09:18:45;;;;;;;15.37;14.10;;;11.80;99.90;;;;;;6193647;23;20634;-96
2022/09/30 09:21:37;;;;;;;16.20;14.80;;;12.00;99.90;;;;;;6194390;23;20583;-96
2022/09/30 09:24:12;;;;;;;16.53;13.40;;;12.30;99.90;;;;;;6193850;23;20951;-96
2022/09/30 09:26:39;;;;;;;14.40;13.20;;;12.70;99.90;;;;;;6197938;23;20649;-95
2022/09/30 09:29:22;;;;;;;13.90;12.60;;;12.70;99.90;;;;;;6202387;23;20610;-96
2022/09/30 09:31:53;;;;;;;13.73;12.53;;;13.10;99.90;;;;;;6191889;23;20571;-96
2022/09/30 09:34:25;;;;;;;13.30;12.10;;;13.10;99.90;;;;;;6193646;23;20544;-96
2022/09/30 09:37:06;;;;;;;13.43;12.33;;;13.30;99.90;;;;;;6192059;23;20614;-95
2022/09/30 09:39:50;;;;;;;17.07;15.47;;;13.90;99.90;;;;;;6194986;23;20591;-96
2022/09/30 09:42:40;;;;;;;26.97;24.47;;;14.40;99.90;;;;;;6199861;23;20659;-94
2022/09/30 09:45:18;;;;;;;22.17;20.07;;;14.00;99.90;;;;;;6199684;23;20567;-96
2022/09/30 09:47:51;;;;;;;13.27;12.17;;;14.50;99.90;;;;;;6200485;23;20714;-96
2022/09/30 09:50:35;;;;;;;16.20;14.40;;;14.50;99.90;;;;;;6194011;23;20590;-96
2022/09/30 09:53:21;;;;;;;12.87;11.67;;;14.70;99.90;;;;;;6191818;23;20595;-96
2022/09/30 09:55:54;;;;;;;12.47;10.53;;;14.50;99.90;;;;;;6202898;23;20683;-96
2022/09/30 09:58:21;;;;;;;13.43;11.17;;;15.20;99.90;;;;;;6198676;23;20599;-96
2022/09/30 10:01:19;;;;;;;10.20;9.20;;;15.80;99.90;;;;;;6193491;23;20966;-95
2022/09/30 10:04:09;;;;;;;21.90;10.23;;;15.10;99.90;;;;;;6192724;23;20626;-95
2022/09/30 10:06:45;;;;;;;11.47;10.37;;;14.70;99.90;;;;;;6191240;23;20677;-96
2022/09/30 10:09:24;;;;;;;21.00;18.80;;;15.50;99.90;;;;;;6193777;23;20602;-96
2022/09/30 10:11:52;;;;;;;12.53;11.43;;;16.60;99.90;;;;;;6194996;23;20605;-96
2022/09/30 10:14:22;;;;;;;11.03;10.03;;;17.50;99.90;;;;;;6190451;23;20587;-96
2022/09/30 10:16:49;;;;;;;8.70;8.00;;;17.40;99.90;;;;;;6190551;23;20611;-96
2022/09/30 10:19:24;;;;;;;9.47;8.57;;;16.40;99.90;;;;;;6198884;23;20610;-96
2022/09/30 10:22:25;;;;;;;9.13;8.27;;;16.40;99.90;;;;;;6192631;23;20606;-96
2022/09/30 10:25:25;;;;;;;7.70;7.00;;;16.20;99.90;;;;;;6195164;23;20597;-96
2022/09/30 10:28:01;;;;;;;7.90;7.10;;;17.20;99.90;;;;;;6209016;23;20582;-96
2022/09/30 10:30:45;;;;;;;7.33;6.73;;;18.40;99.90;;;;;;6207713;23;20587;-95
2022/09/30 10:33:28;;;;;;;10.07;9.27;;;18.70;99.90;;;;;;6208689;23;20578;-96
2022/09/30 10:36:16;;;;;;;9.47;8.67;;;19.00;99.90;;;;;;6202154;23;20789;-96
2022/09/30 10:38:57;;;;;;;11.47;10.57;;;19.70;99.90;;;;;;6195841;23;20654;-96
2022/09/30 10:41:27;;;;;;;8.73;5.70;;;20.90;97.30;;;;;;6197520;23;21068;-96
2022/09/30 10:43:56;;;;;;;15.10;13.97;;;21.10;95.90;;;;;;6194110;23;20591;-96
2022/09/30 10:46:28;;;;;;;7.33;6.63;;;20.00;99.40;;;;;;6201631;23;20599;-96
2022/09/30 10:48:57;;;;;;;6.50;5.07;;;19.50;99.90;;;;;;6207789;23;20627;-96
2022/09/30 10:51:35;;;;;;;5.57;5.07;;;19.00;99.90;;;;;;6206046;23;20567;-96
2022/09/30 10:54:05;;;;;;;5.90;5.40;;;18.60;99.90;;;;;;6206699;23;20605;-96
2022/09/30 10:56:39;;;;;;;7.00;6.33;;;20.20;96.30;;;;;;6208938;23;20539;-96
2022/09/30 10:59:15;;;;;;;4.53;4.13;;;21.10;93.30;;;;;;6208100;23;20618;-96
2022/09/30 11:01:49;;;;;;;5.07;4.67;;;20.40;94.10;;;;;;6208194;23;20610;-96
2022/09/30 11:04:26;;;;;;;5.00;4.53;;;21.20;91.10;;;;;;6209401;23;20559;-96
2022/09/30 11:07:00;;;;;;;7.03;5.37;;;22.40;83.90;;;;;;6208977;23;20678;-96
2022/09/30 11:09:46;;;;;;;4.47;4.17;;;22.70;79.30;;;;;;6208763;23;20607;-96
2022/09/30 11:12:20;;;;;;;4.80;4.40;;;24.10;72.70;;;;;;6201044;23;20670;-96
2022/09/30 11:14:57;;;;;;;5.40;5.00;;;22.70;82.50;;;;;;6207139;23;20582;-96
2022/09/30 11:17:43;;;;;;;4.33;3.80;;;23.00;74.70;;;;;;6209984;23;20567;-96
2022/09/30 11:20:18;;;;;;;4.33;3.70;;;22.90;69.70;;;;;;6206574;23;20686;-96
2022/09/30 11:25:47;;;;;;;3.17;2.97;;;23.50;66.70;;;;;;6196934;23;20655;-95
2022/09/30 11:28:37;;;;;;;3.20;2.90;;;24.30;64.10;;;;;;6201012;23;20558;-96
2022/09/30 11:31:18;;;;;;;3.07;2.87;;;24.40;60.30;;;;;;6198059;23;21095;-96
2022/09/30 11:34:00;;;;;;;3.60;3.03;;;23.30;63.10;;;;;;6192207;23;20652;-96
2022/09/30 11:36:35;;;;;;;3.00;2.80;;;22.50;65.60;;;;;;6190909;23;20604;-95
2022/09/30 11:39:28;;;;;;;2.80;2.60;;;20.20;72.90;;;;;;6187648;23;20627;-95
2022/09/30 11:42:03;;;;;;;4.40;2.80;;;20.70;69.90;;;;;;6187473;23;20582;-96
2022/09/30 11:44:42;;;;;;;4.37;2.50;;;23.30;64.30;;;;;;6188384;23;21127;-96
2022/09/30 11:47:29;;;;;;;3.70;2.77;;;24.70;59.80;;;;;;6191061;23;20602;-95
2022/09/30 11:50:30;;;;;;;3.33;3.13;;;25.70;56.10;;;;;;6190082;23;20622;-96
2022/09/30 11:53:08;;;;;;;2.30;2.20;;;24.70;55.70;;;;;;6182615;23;20975;-95
2022/09/30 11:55:46;;;;;;;2.23;2.03;;;22.80;60.50;;;;;;6187958;23;20580;-96
2022/09/30 11:58:19;;;;;;;2.20;2.00;;;25.20;57.00;;;;;;6188814;23;20991;-95
2022/09/30 12:00:51;;;;;;;2.27;2.07;;;23.40;56.20;;;;;;6189240;23;20674;-96
2022/09/30 12:03:25;;;;;;;4.37;2.30;;;23.80;56.90;;;;;;6189075;23;20571;-96
2022/09/30 12:05:57;;;;;;;1.67;1.57;;;23.90;55.80;;;;;;6187584;23;20605;-95
2022/09/30 12:08:30;;;;;;;4.90;2.50;;;23.50;54.50;;;;;;6186712;23;20631;-96
2022/09/30 12:11:02;;;;;;;1.97;1.87;;;22.00;57.80;;;;;;6187583;23;20580;-96
2022/09/30 12:13:36;;;;;;;4.03;2.27;;;23.20;55.80;;;;;;6189906;23;20643;-96
2022/09/30 12:16:19;;;;;;;2.53;2.37;;;23.10;55.10;;;;;;6194413;23;20623;-96
2022/09/30 12:19:13;;;;;;;4.70;2.53;;;24.90;53.30;;;;;;6194668;23;20623;-95
2022/09/30 12:21:55;;;;;;;1.67;1.40;;;24.90;51.10;;;;;;6194204;23;20583;-96
2022/09/30 12:24:35;;;;;;;4.83;1.90;;;25.80;49.30;;;;;;6191358;23;20634;-96
2022/09/30 12:27:04;;;;;;;3.63;1.60;;;24.70;49.40;;;;;;6191561;23;20582;-96
2022/09/30 12:33:00;;;;;;;1.57;1.47;;;24.10;49.80;;;;;;6190014;23;20582;-96
2022/09/30 12:35:52;;;;;;;1.77;1.40;;;24.10;49.40;;;;;;6189760;23;20545;-96
2022/09/30 12:38:41;;;;;;;2.63;2.30;;;25.00;49.80;;;;;;6183831;23;20714;-96
2022/09/30 12:41:28;;;;;;;2.47;1.90;;;25.70;46.70;;;;;;6190543;23;20520;-95
2022/09/30 12:44:29;;;;;;;3.10;2.00;;;26.30;44.80;;;;;;6191972;23;20516;-96
2022/09/30 12:47:23;;;;;;;3.00;2.00;;;24.40;45.50;;;;;;6187025;23;20675;-96
2022/09/30 12:49:53;;;;;;;3.00;1.70;;;24.00;46.50;;;;;;6183859;23;20608;-96
2022/09/30 12:52:22;;;;;;;3.90;3.47;;;24.50;45.60;;;;;;6186272;23;20583;-96
2022/09/30 12:54:55;;;;;;;2.60;1.97;;;24.70;44.40;;;;;;6183919;23;20596;-95
2022/09/30 12:57:27;;;;;;;7.77;6.97;;;23.70;44.70;;;;;;6215672;23;20560;-96
2022/09/30 12:59:57;;;;;;;7.27;4.90;;;24.10;44.50;;;;;;6195643;23;20635;-96
2022/09/30 13:02:32;;;;;;;12.90;11.57;;;25.00;45.10;;;;;;6184588;23;20568;-96
2022/09/30 13:05:48;;;;;;;1.33;1.23;;;25.40;43.30;;;;;;6186965;23;20585;-96
2022/09/30 13:08:43;;;;;;;2.03;1.13;;;25.60;42.70;;;;;;6189367;23;20603;-95
2022/09/30 13:11:32;;;;;;;2.50;2.30;;;25.50;42.50;;;;;;6189191;23;20609;-95
2022/09/30 13:21:23;;;;;;;2.30;1.73;;;23.90;43.10;;;;;;6144798;23;20633;-95
2022/09/30 13:24:15;;;;;;;1.67;1.40;;;24.80;42.80;;;;;;6211700;23;20544;-96
2022/09/30 13:26:48;;;;;;;2.37;1.40;;;26.50;41.50;;;;;;6205265;23;20626;-96
2022/09/30 13:29:38;;;;;;;2.17;1.10;;;24.50;41.30;;;;;;6206372;23;20589;-94
2022/09/30 13:32:11;;;;;;;2.20;1.20;;;25.00;41.10;;;;;;6204238;23;20593;-96
2022/09/30 13:35:23;;;;;;;1.30;1.20;;;26.10;39.90;;;;;;6195665;23;20647;-96
2022/09/30 13:38:15;;;;;;;3.13;2.13;;;25.20;39.50;;;;;;6161531;23;20590;-96
2022/09/30 13:40:53;;;;;;;1.40;1.30;;;24.30;41.70;;;;;;6186238;23;20629;-95
2022/09/30 13:49:25;;;;;;;2.60;1.57;;;23.70;41.00;;;;;;6197804;23;21181;-96